Datum Uhrzeit Temperatur Luft Windgeschw. Regen Regen (1h) Temp (1h) Luftdruck Windrichtung Taupunkt Sensor
2019-06-16 15:57:00 22.9 79.0 0.0 0.0 0.0 1.1 0.0 Kombisensor
2019-06-16 15:55:00 22.9 79.0 0.0 0.0 0.0 1.6 0.0 Kombisensor
2019-06-16 15:54:00 22.9 79.0 0.0 0.0 0.0 1.6 0.0 Kombisensor
2019-06-16 15:51:00 22.1 79.0 0.0 0.0 0.0 -0.1 0.0 Kombisensor
2019-06-16 15:50:00 22.5 79.0 0.0 0.0 0.0 0.3 0.0 Kombisensor
2019-06-16 15:48:00 22.5 79.0 0.0 0.0 0.0 -0.2 0.0 Kombisensor
2019-06-16 15:45:00 25.1 79.0 0.0 0.0 0.0 3.0 0.0 Kombisensor
2019-06-16 15:45:00 25.5 79.0 0.0 0.0 0.0 3.4 0.0 Kombisensor
2019-06-16 15:43:00 25.5 79.0 0.0 0.0 0.0 4.1 0.0 Kombisensor
2019-06-16 15:40:00 24.2 79.0 0.0 0.0 0.0 2.7 0.0 Kombisensor
2019-06-16 15:40:00 24.2 79.0 0.0 0.0 0.0 2.7 0.0 Kombisensor
2019-06-16 15:37:00 25.6 79.0 0.0 0.0 0.0 3.6 0.0 Kombisensor
2019-06-16 15:35:00 24.5 79.0 0.0 0.0 0.0 2.5 0.0 Kombisensor
2019-06-16 15:34:00 24.5 79.0 0.0 0.0 0.0 2.0 0.0 Kombisensor
2019-06-16 15:31:00 24.0 79.0 0.0 0.0 0.0 2.9 0.0 Kombisensor
2019-06-16 15:30:00 22.8 79.0 0.0 0.0 0.0 1.7 0.0 Kombisensor
2019-06-16 15:28:00 22.8 79.0 0.0 0.0 0.0 1.7 0.0 Kombisensor
2019-06-16 15:25:00 21.1 79.0 0.0 0.0 0.0 0.6 0.0 Kombisensor
2019-06-16 15:25:00 21.1 79.0 0.0 0.0 0.0 0.4 0.0 Kombisensor
2019-06-16 15:22:00 21.0 79.0 0.0 0.0 0.0 0.3 0.0 Kombisensor
2019-06-16 15:20:00 21.1 79.0 0.0 0.0 0.0 0.6 0.0 Kombisensor
2019-06-16 15:19:00 21.1 79.0 0.0 0.0 0.0 0.6 0.0 Kombisensor
2019-06-16 15:16:00 21.9 79.0 0.0 0.0 0.0 1.4 0.0 Kombisensor
2019-06-16 15:15:00 24.7 79.0 0.0 0.0 0.0 4.0 0.0 Kombisensor
2019-06-16 15:13:00 24.7 79.0 0.0 0.0 0.0 4.0 0.0 Kombisensor
2019-06-16 15:10:00 24.1 79.0 0.0 0.0 0.0 3.4 0.0 Kombisensor
2019-06-16 15:10:00 21.9 79.0 0.0 0.0 0.0 1.2 0.0 Kombisensor
2019-06-16 15:07:00 21.9 79.0 0.0 0.0 0.0 1.0 0.0 Kombisensor
2019-06-16 15:05:00 23.5 79.0 0.0 0.0 0.0 2.8 0.0 Kombisensor
2019-06-16 15:04:00 23.5 79.0 0.0 0.0 0.0 2.8 0.0 Kombisensor
2019-06-16 15:01:00 22.2 79.0 0.0 0.0 0.0 1.4 0.0 Kombisensor
2019-06-16 15:00:00 21.8 79.0 0.0 0.0 0.0 1.0 0.0 Kombisensor
2019-06-16 14:58:00 21.8 79.0 0.0 0.0 0.0 0.7 0.0 Kombisensor
2019-06-16 14:56:00 22.3 79.0 0.0 0.0 0.0 -0.4 0.0 Kombisensor
2019-06-16 14:55:00 21.3 79.0 0.0 0.0 0.0 -1.4 0.0 Kombisensor
2019-06-16 14:53:00 21.3 79.0 0.0 0.0 0.0 -1.5 0.0 Kombisensor
2019-06-16 14:50:00 22.2 79.0 0.0 0.0 0.0 -2.0 0.0 Kombisensor
2019-06-16 14:50:00 22.2 79.0 0.0 0.0 0.0 -2.0 0.0 Kombisensor
2019-06-16 14:47:00 22.7 79.0 0.0 0.0 0.0 -0.8 0.0 Kombisensor
2019-06-16 14:45:00 22.1 79.0 0.0 0.0 0.0 -1.4 0.0 Kombisensor
2019-06-16 14:44:00 22.1 79.0 0.0 0.0 0.0 -2.9 0.0 Kombisensor
2019-06-16 14:41:00 21.4 79.0 0.0 0.0 0.0 -3.6 0.0 Kombisensor
2019-06-16 14:40:00 21.5 79.0 0.0 0.0 0.0 -3.2 0.0 Kombisensor
2019-06-16 14:38:00 21.5 79.0 0.0 0.0 0.0 -3.2 0.0 Kombisensor
2019-06-16 14:35:00 22.0 79.0 0.0 0.0 0.0 -0.3 0.0 Kombisensor
2019-06-16 14:35:00 22.5 79.0 0.0 0.0 0.0 0.2 0.0 Kombisensor
2019-06-16 14:32:00 22.5 79.0 0.0 0.0 0.0 0.2 0.0 Kombisensor
2019-06-16 14:30:00 21.1 79.0 0.0 0.0 0.0 -1.2 0.0 Kombisensor
2019-06-16 14:29:00 21.1 79.0 0.0 0.0 0.0 -1.2 0.0 Kombisensor
2019-06-16 14:26:00 20.5 79.0 0.0 0.0 0.0 -1.6 0.0 Kombisensor
2019-06-16 14:25:00 20.7 79.0 0.0 0.0 0.0 -1.4 0.0 Kombisensor
2019-06-16 14:23:00 20.7 79.0 0.0 0.0 0.0 -1.4 0.0 Kombisensor
2019-06-16 14:20:00 20.5 79.0 0.0 0.0 0.0 -0.5 0.0 Kombisensor
2019-06-16 14:20:00 20.5 79.0 0.0 0.0 0.0 -0.5 0.0 Kombisensor
2019-06-16 14:17:00 20.5 79.0 0.0 0.0 0.0 -1.4 0.0 Kombisensor
2019-06-16 14:15:00 20.7 79.0 0.0 0.0 0.0 -0.5 0.0 Kombisensor
2019-06-16 14:12:00 20.7 79.0 0.0 0.0 0.0 -0.2 0.0 Kombisensor
2019-06-16 14:12:00 20.7 79.0 0.0 0.0 0.0 -0.2 0.0 Kombisensor
2019-06-16 14:10:00 20.7 79.0 0.0 0.0 0.0 -0.2 0.0 Kombisensor
2019-06-16 14:09:00 20.7 79.0 0.0 0.0 0.0 -0.1 0.0 Kombisensor
2019-06-16 14:06:00 20.9 79.0 0.0 0.0 0.0 -0.3 0.0 Kombisensor
2019-06-16 14:05:00 20.7 79.0 0.0 0.0 0.0 -0.5 0.0 Kombisensor
2019-06-16 14:03:00 20.7 79.0 0.0 0.0 0.0 -0.6 0.0 Kombisensor
2019-06-16 14:00:00 20.8 79.0 0.0 0.0 0.0 -0.8 0.0 Kombisensor
2019-06-16 14:00:00 21.1 79.0 0.0 0.0 0.0 -0.5 0.0 Kombisensor
2019-06-16 13:57:00 21.1 79.0 0.0 0.0 0.0 -0.5 0.0 Kombisensor
2019-06-16 13:55:00 22.7 79.0 0.0 0.0 0.0 2.1 0.0 Kombisensor
2019-06-16 13:54:00 22.7 79.0 0.0 0.0 0.0 2.1 0.0 Kombisensor
2019-06-16 13:51:00 22.8 79.0 0.0 0.0 0.0 2.3 0.0 Kombisensor
2019-06-16 13:50:00 24.2 79.0 0.0 0.0 0.0 3.4 0.0 Kombisensor
2019-06-16 13:48:00 24.2 79.0 0.0 0.0 0.0 3.4 0.0 Kombisensor
2019-06-16 13:45:00 23.5 79.0 0.0 0.0 0.0 2.4 0.0 Kombisensor
2019-06-16 13:45:00 25.0 79.0 0.0 0.0 0.0 5.0 0.0 Kombisensor
2019-06-16 13:42:00 25.0 79.0 0.0 0.0 0.0 4.3 0.0 Kombisensor
2019-06-16 13:40:00 24.7 79.0 0.0 0.0 0.0 4.0 0.0 Kombisensor
2019-06-16 13:39:00 24.7 79.0 0.0 0.0 0.0 4.0 0.0 Kombisensor
2019-06-16 13:36:00 22.3 79.0 0.0 0.0 0.0 1.8 0.0 Kombisensor
2019-06-16 13:35:00 22.3 79.0 0.0 0.0 0.0 1.8 0.0 Kombisensor
2019-06-16 13:33:00 22.3 79.0 0.0 0.0 0.0 0.2 0.0 Kombisensor
2019-06-16 13:33:00 22.3 79.0 0.0 0.0 0.0 0.2 0.0 Kombisensor
2019-06-16 13:30:00 22.3 79.0 0.0 0.0 0.0 0.2 0.0 Kombisensor
2019-06-16 13:30:00 22.2 79.0 0.0 0.0 0.0 0.1 0.0 Kombisensor
2019-06-16 13:28:00 22.2 79.0 0.0 0.0 0.0 1.8 0.0 Kombisensor
2019-06-16 13:25:00 22.1 79.0 0.0 0.0 0.0 1.7 0.0 Kombisensor
2019-06-16 13:25:00 22.1 79.0 0.0 0.0 0.0 1.7 0.0 Kombisensor
2019-06-16 13:22:00 22.1 79.0 0.0 0.0 0.0 1.0 0.0 Kombisensor
2019-06-16 13:20:00 21.0 79.0 0.0 0.0 0.0 -0.1 0.0 Kombisensor
2019-06-16 13:19:00 21.0 79.0 0.0 0.0 0.0 -0.1 0.0 Kombisensor
2019-06-16 13:16:00 21.9 79.0 0.0 0.0 0.0 0.8 0.0 Kombisensor
2019-06-16 13:15:00 21.2 79.0 0.0 0.0 0.0 0.1 0.0 Kombisensor
2019-06-16 13:13:00 21.2 79.0 0.0 0.0 0.0 0.4 0.0 Kombisensor
2019-06-16 13:10:00 20.9 79.0 0.0 0.0 0.0 0.2 0.0 Kombisensor
2019-06-16 13:10:00 20.8 79.0 0.0 0.0 0.0 0.1 0.0 Kombisensor
2019-06-16 13:07:00 20.8 79.0 0.0 0.0 0.0 0.5 0.0 Kombisensor
2019-06-16 13:05:00 21.2 79.0 0.0 0.0 0.0 0.8 0.0 Kombisensor
2019-06-16 13:04:00 21.2 79.0 0.0 0.0 0.0 0.8 0.0 Kombisensor
2019-06-16 13:01:00 21.3 79.0 0.0 0.0 0.0 0.6 0.0 Kombisensor
2019-06-16 13:00:00 21.6 79.0 0.0 0.0 0.0 1.2 0.0 Kombisensor
2019-06-16 12:58:00 21.6 79.0 0.0 0.0 0.0 1.4 0.0 Kombisensor
2019-06-16 12:58:00 20.6 79.0 0.0 0.0 0.0 0.4 0.0 Kombisensor
2019-06-16 12:55:00 20.6 79.0 0.0 0.0 0.0 0.4 0.0 Kombisensor
2019-06-16 12:55:00 20.5 79.0 0.0 0.0 0.0 0.3 0.0 Kombisensor
2019-06-16 12:52:00 20.5 79.0 0.0 0.0 0.0 0.6 0.0 Kombisensor
2019-06-16 12:50:00 20.8 79.0 0.0 0.0 0.0 0.9 0.0 Kombisensor
2019-06-16 12:49:00 20.8 79.0 0.0 0.0 0.0 0.9 0.0 Kombisensor
2019-06-16 12:49:00 20.8 79.0 0.0 0.0 0.0 0.9 0.0 Kombisensor
2019-06-16 12:46:00 21.1 79.0 0.0 0.0 0.0 0.6 0.0 Kombisensor
2019-06-16 12:46:00 21.1 79.0 0.0 0.0 0.0 0.6 0.0 Kombisensor
2019-06-16 12:45:00 20.0 79.0 0.0 0.0 0.0 -0.5 0.0 Kombisensor
2019-06-16 12:44:00 20.0 79.0 0.0 0.0 0.0 0.1 0.0 Kombisensor
2019-06-16 12:41:00 20.7 79.0 0.0 0.0 0.0 0.8 0.0 Kombisensor
2019-06-16 12:41:00 20.7 79.0 0.0 0.0 0.0 0.8 0.0 Kombisensor
2019-06-16 12:40:00 20.7 79.0 0.0 0.0 0.0 0.8 0.0 Kombisensor
2019-06-16 12:38:00 20.5 79.0 0.0 0.0 0.0 0.7 0.0 Kombisensor
2019-06-16 12:35:00 20.5 79.0 0.0 0.0 0.0 0.7 0.0 Kombisensor
2019-06-16 12:35:00 21.7 79.0 0.0 0.0 0.0 1.9 0.0 Kombisensor
2019-06-16 12:32:00 22.1 79.0 0.0 0.0 0.0 2.2 0.0 Kombisensor
2019-06-16 12:30:00 22.1 79.0 0.0 0.0 0.0 2.2 0.0 Kombisensor
2019-06-16 12:29:00 22.1 79.0 0.0 0.0 0.0 2.2 0.0 Kombisensor
2019-06-16 12:26:00 20.4 79.0 0.0 0.0 0.0 1.1 0.0 Kombisensor
2019-06-16 12:25:00 20.4 79.0 0.0 0.0 0.0 1.0 0.0 Kombisensor
2019-06-16 12:23:00 20.5 79.0 0.0 0.0 0.0 1.1 0.0 Kombisensor
2019-06-16 12:20:00 21.1 79.0 0.0 0.0 0.0 2.0 0.0 Kombisensor
2019-06-16 12:20:00 21.1 79.0 0.0 0.0 0.0 2.0 0.0 Kombisensor
2019-06-16 12:17:00 21.1 79.0 0.0 0.0 0.0 2.2 0.0 Kombisensor
2019-06-16 12:15:00 21.1 79.0 0.0 0.0 0.0 2.2 0.0 Kombisensor
2019-06-16 12:14:00 20.8 79.0 0.0 0.0 0.0 1.9 0.0 Kombisensor
2019-06-16 12:11:00 20.7 79.0 0.0 0.0 0.0 1.1 0.0 Kombisensor
2019-06-16 12:10:00 20.7 79.0 0.0 0.0 0.0 1.1 0.0 Kombisensor
2019-06-16 12:08:00 20.3 79.0 0.0 0.0 0.0 0.3 0.0 Kombisensor
2019-06-16 12:05:00 20.4 79.0 0.0 0.0 0.0 0.4 0.0 Kombisensor
2019-06-16 12:05:00 20.4 79.0 0.0 0.0 0.0 0.4 0.0 Kombisensor
2019-06-16 12:02:00 20.7 79.0 0.0 0.0 0.0 1.8 0.0 Kombisensor
2019-06-16 12:00:00 20.4 79.0 0.0 0.0 0.0 1.5 0.0 Kombisensor
2019-06-16 12:00:00 20.4 79.0 0.0 0.0 0.0 1.5 0.0 Kombisensor
2019-06-16 11:57:00 20.2 79.0 0.0 0.0 0.0 0.9 0.0 Kombisensor
2019-06-16 11:55:00 20.2 79.0 0.0 0.0 0.0 0.9 0.0 Kombisensor
2019-06-16 11:54:00 19.8 79.0 0.0 0.0 0.0 0.5 0.0 Kombisensor
2019-06-16 11:51:00 19.9 79.0 0.0 0.0 0.0 0.6 0.0 Kombisensor
2019-06-16 11:50:00 19.9 79.0 0.0 0.0 0.0 0.6 0.0 Kombisensor
2019-06-16 11:48:00 20.2 79.0 0.0 0.0 0.0 0.7 0.0 Kombisensor
2019-06-16 11:45:00 20.5 79.0 0.0 0.0 0.0 1.0 0.0 Kombisensor
2019-06-16 11:45:00 20.5 79.0 0.0 0.0 0.0 1.0 0.0 Kombisensor
2019-06-16 11:42:00 19.9 79.0 0.0 0.0 0.0 0.5 0.0 Kombisensor
2019-06-16 11:40:00 19.9 79.0 0.0 0.0 0.0 0.6 0.0 Kombisensor
2019-06-16 11:39:00 19.8 79.0 0.0 0.0 0.0 0.5 0.0 Kombisensor
2019-06-16 11:36:00 19.8 79.0 0.0 0.0 0.0 0.5 0.0 Kombisensor
2019-06-16 11:35:00 19.8 79.0 0.0 0.0 0.0 0.6 0.0 Kombisensor
2019-06-16 11:33:00 19.6 79.0 0.0 0.0 0.0 0.4 0.0 Kombisensor
2019-06-16 11:30:00 19.9 79.0 0.0 0.0 0.0 0.8 0.0 Kombisensor
2019-06-16 11:30:00 19.9 79.0 0.0 0.0 0.0 0.8 0.0 Kombisensor
2019-06-16 11:27:00 19.3 79.0 0.0 0.0 0.0 -0.1 0.0 Kombisensor
2019-06-16 11:25:00 19.4 79.0 0.0 0.0 0.0 0.0 0.0 Kombisensor
2019-06-16 11:24:00 19.4 79.0 0.0 0.0 0.0 0.0 0.0 Kombisensor
2019-06-16 11:21:00 19.1 79.0 0.0 0.0 0.0 0.0 0.0 Kombisensor
2019-06-16 11:20:00 19.1 79.0 0.0 0.0 0.0 0.0 0.0 Kombisensor
2019-06-16 11:18:00 18.9 79.0 0.0 0.0 0.0 -0.4 0.0 Kombisensor
2019-06-16 11:16:00 18.9 79.0 0.0 0.0 0.0 -0.4 0.0 Kombisensor
2019-06-16 11:15:00 18.9 79.0 0.0 0.0 0.0 -0.4 0.0 Kombisensor
2019-06-16 11:13:00 18.9 79.0 0.0 0.0 0.0 0.0 0.0 Kombisensor
2019-06-16 11:10:00 19.6 79.0 0.0 0.0 0.0 0.7 0.0 Kombisensor
2019-06-16 11:10:00 19.6 79.0 0.0 0.0 0.0 0.7 0.0 Kombisensor
2019-06-16 11:07:00 20.0 79.0 0.0 0.0 0.0 1.2 0.0 Kombisensor
2019-06-16 11:05:00 20.0 79.0 0.0 0.0 0.0 1.2 0.0 Kombisensor
2019-06-16 11:04:00 19.3 79.0 0.0 0.0 0.0 0.6 0.0 Kombisensor
2019-06-16 11:04:00 19.3 79.0 0.0 0.0 0.0 0.6 0.0 Kombisensor
2019-06-16 11:01:00 18.9 79.0 0.0 0.0 0.0 0.2 0.0 Kombisensor
2019-06-16 11:00:00 18.9 79.0 0.0 0.0 0.0 0.6 0.0 Kombisensor
2019-06-16 10:58:00 19.0 79.0 0.0 0.0 0.0 0.7 0.0 Kombisensor
2019-06-16 10:55:00 19.3 79.0 0.0 0.0 0.0 1.1 0.0 Kombisensor
2019-06-16 10:55:00 19.3 79.0 0.0 0.0 0.0 1.1 0.0 Kombisensor
2019-06-16 10:52:00 19.3 79.0 0.0 0.0 0.0 1.3 0.0 Kombisensor
2019-06-16 10:50:00 19.3 79.0 0.0 0.0 0.0 1.4 0.0 Kombisensor
2019-06-16 10:49:00 19.3 79.0 0.0 0.0 0.0 1.4 0.0 Kombisensor
2019-06-16 10:46:00 19.5 79.0 0.0 0.0 0.0 1.4 0.0 Kombisensor
2019-06-16 10:45:00 19.5 79.0 0.0 0.0 0.0 1.4 0.0 Kombisensor
2019-06-16 10:43:00 19.4 79.0 0.0 0.0 0.0 1.3 0.0 Kombisensor
2019-06-16 10:40:00 19.3 79.0 0.0 0.0 0.0 1.2 0.0 Kombisensor
2019-06-16 10:40:00 19.3 79.0 0.0 0.0 0.0 1.2 0.0 Kombisensor
2019-06-16 10:37:00 19.3 79.0 0.0 0.0 0.0 1.3 0.0 Kombisensor
2019-06-16 10:35:00 19.2 79.0 0.0 0.0 0.0 1.2 0.0 Kombisensor
2019-06-16 10:34:00 19.2 79.0 0.0 0.0 0.0 1.2 0.0 Kombisensor
2019-06-16 10:32:00 19.1 79.0 0.0 0.0 0.0 1.1 0.0 Kombisensor
2019-06-16 10:30:00 19.1 79.0 0.0 0.0 0.0 1.1 0.0 Kombisensor
2019-06-16 10:29:00 19.3 79.0 0.0 0.0 0.0 1.0 0.0 Kombisensor
2019-06-16 10:26:00 19.4 79.0 0.0 0.0 0.0 1.3 0.0 Kombisensor
2019-06-16 10:25:00 19.4 79.0 0.0 0.0 0.0 1.3 0.0 Kombisensor
2019-06-16 10:23:00 19.1 79.0 0.0 0.0 0.0 1.1 0.0 Kombisensor
2019-06-16 10:20:00 19.1 79.0 0.0 0.0 0.0 1.1 0.0 Kombisensor
2019-06-16 10:20:00 19.1 79.0 0.0 0.0 0.0 1.1 0.0 Kombisensor
2019-06-16 10:17:00 19.3 79.0 0.0 0.0 0.0 1.2 0.0 Kombisensor
2019-06-16 10:15:00 19.3 79.0 0.0 0.0 0.0 1.3 0.0 Kombisensor
2019-06-16 10:14:00 19.2 79.0 0.0 0.0 0.0 1.2 0.0 Kombisensor
2019-06-16 10:11:00 18.9 79.0 0.0 0.0 0.0 0.9 0.0 Kombisensor
2019-06-16 10:10:00 18.9 79.0 0.0 0.0 0.0 0.9 0.0 Kombisensor
2019-06-16 10:08:00 18.9 79.0 0.0 0.0 0.0 0.9 0.0 Kombisensor
2019-06-16 10:05:00 18.8 79.0 0.0 0.0 0.0 0.8 0.0 Kombisensor
2019-06-16 10:05:00 18.8 79.0 0.0 0.0 0.0 0.8 0.0 Kombisensor
2019-06-16 10:02:00 18.7 79.0 0.0 0.0 0.0 0.9 0.0 Kombisensor
2019-06-16 10:00:00 18.3 79.0 0.0 0.0 0.0 0.5 0.0 Kombisensor
2019-06-16 09:59:00 18.3 79.0 0.0 0.0 0.0 0.5 0.0 Kombisensor
2019-06-16 09:56:00 18.2 79.0 0.0 0.0 0.0 0.6 0.0 Kombisensor
2019-06-16 09:55:00 18.2 79.0 0.0 0.0 0.0 0.6 0.0 Kombisensor
2019-06-16 09:53:00 18.0 79.0 0.0 0.0 0.0 0.8 0.0 Kombisensor
2019-06-16 09:50:00 17.9 79.0 0.0 0.0 0.0 0.7 0.0 Kombisensor
2019-06-16 09:50:00 17.9 79.0 0.0 0.0 0.0 0.7 0.0 Kombisensor
2019-06-16 09:48:00 18.1 79.0 0.0 0.0 0.0 0.7 0.0 Kombisensor
2019-06-16 09:45:00 18.1 79.0 0.0 0.0 0.0 0.7 0.0 Kombisensor
2019-06-16 09:45:00 18.1 79.0 0.0 0.0 0.0 0.7 0.0 Kombisensor
2019-06-16 09:42:00 18.1 79.0 0.0 0.0 0.0 0.6 0.0 Kombisensor
2019-06-16 09:40:00 18.1 79.0 0.0 0.0 0.0 0.6 0.0 Kombisensor
2019-06-16 09:39:00 17.9 79.0 0.0 0.0 0.0 0.7 0.0 Kombisensor
2019-06-16 09:36:00 18.0 79.0 0.0 0.0 0.0 0.7 0.0 Kombisensor
2019-06-16 09:35:00 18.0 79.0 0.0 0.0 0.0 0.7 0.0 Kombisensor
2019-06-16 09:33:00 17.8 79.0 0.0 0.0 0.0 0.5 0.0 Kombisensor
2019-06-16 09:30:00 18.0 79.0 0.0 0.0 0.0 0.6 0.0 Kombisensor
2019-06-16 09:30:00 18.0 79.0 0.0 0.0 0.0 0.6 0.0 Kombisensor
2019-06-16 09:27:00 18.3 79.0 0.0 0.0 0.0 1.3 0.0 Kombisensor
2019-06-16 09:25:00 18.1 79.0 0.0 0.0 0.0 1.1 0.0 Kombisensor
2019-06-16 09:24:00 18.1 79.0 0.0 0.0 0.0 1.1 0.0 Kombisensor
2019-06-16 09:21:00 18.0 79.0 0.0 0.0 0.0 1.4 0.0 Kombisensor
2019-06-16 09:20:00 18.0 79.0 0.0 0.0 0.0 1.2 0.0 Kombisensor
2019-06-16 09:18:00 18.1 79.0 0.0 0.0 0.0 1.4 0.0 Kombisensor
2019-06-16 09:15:00 18.0 79.0 0.0 0.0 0.0 1.3 0.0 Kombisensor
2019-06-16 09:15:00 18.0 79.0 0.0 0.0 0.0 1.3 0.0 Kombisensor
2019-06-16 09:12:00 18.0 79.0 0.0 0.0 0.0 1.7 0.0 Kombisensor
2019-06-16 09:10:00 18.0 79.0 0.0 0.0 0.0 1.7 0.0 Kombisensor
2019-06-16 09:09:00 18.0 79.0 0.0 0.0 0.0 1.7 0.0 Kombisensor
2019-06-16 09:06:00 18.0 79.0 0.0 0.0 0.0 1.7 0.0 Kombisensor
2019-06-16 09:05:00 18.0 79.0 0.0 0.0 0.0 1.7 0.0 Kombisensor
2019-06-16 09:04:00 18.0 79.0 0.0 0.0 0.0 1.9 0.0 Kombisensor
2019-06-16 09:01:00 17.8 79.0 0.0 0.0 0.0 1.8 0.0 Kombisensor
2019-06-16 09:00:00 17.8 79.0 0.0 0.0 0.0 1.8 0.0 Kombisensor
2019-06-16 08:58:00 17.7 79.0 0.0 0.0 0.0 1.7 0.0 Kombisensor
2019-06-16 08:55:00 17.6 79.0 0.0 0.0 0.0 1.6 0.0 Kombisensor
2019-06-16 08:55:00 17.6 79.0 0.0 0.0 0.0 1.6 0.0 Kombisensor
2019-06-16 08:52:00 17.2 79.0 0.0 0.0 0.0 1.4 0.0 Kombisensor
2019-06-16 08:50:00 17.2 79.0 0.0 0.0 0.0 1.4 0.0 Kombisensor
2019-06-16 08:49:00 17.1 79.0 0.0 0.0 0.0 1.3 0.0 Kombisensor
2019-06-16 08:46:00 17.4 79.0 0.0 0.0 0.0 1.7 0.0 Kombisensor
2019-06-16 08:45:00 17.4 79.0 0.0 0.0 0.0 1.8 0.0 Kombisensor
2019-06-16 08:43:00 17.3 79.0 0.0 0.0 0.0 1.7 0.0 Kombisensor
2019-06-16 08:40:00 17.5 79.0 0.0 0.0 0.0 2.0 0.0 Kombisensor
2019-06-16 08:40:00 17.5 79.0 0.0 0.0 0.0 2.0 0.0 Kombisensor
2019-06-16 08:37:00 17.2 79.0 0.0 0.0 0.0 1.8 0.0 Kombisensor
2019-06-16 08:35:00 17.3 79.0 0.0 0.0 0.0 2.1 0.0 Kombisensor
2019-06-16 08:34:00 17.3 79.0 0.0 0.0 0.0 2.1 0.0 Kombisensor
2019-06-16 08:31:00 17.4 79.0 0.0 0.0 0.0 2.6 0.0 Kombisensor
2019-06-16 08:30:00 17.4 79.0 0.0 0.0 0.0 2.6 0.0 Kombisensor
2019-06-16 08:28:00 17.0 79.0 0.0 0.0 0.0 2.3 0.0 Kombisensor
2019-06-16 08:25:00 17.0 79.0 0.0 0.0 0.0 2.5 0.0 Kombisensor
2019-06-16 08:25:00 17.0 79.0 0.0 0.0 0.0 2.5 0.0 Kombisensor
2019-06-16 08:22:00 16.6 79.0 0.0 0.0 0.0 2.3 0.0 Kombisensor
2019-06-16 08:20:00 16.8 79.0 0.0 0.0 0.0 2.5 0.0 Kombisensor
2019-06-16 08:20:00 16.8 79.0 0.0 0.0 0.0 2.5 0.0 Kombisensor
2019-06-16 08:17:00 16.7 79.0 0.0 0.0 0.0 2.6 0.0 Kombisensor
2019-06-16 08:15:00 16.7 79.0 0.0 0.0 0.0 2.6 0.0 Kombisensor
2019-06-16 08:14:00 16.4 79.0 0.0 0.0 0.0 2.5 0.0 Kombisensor
2019-06-16 08:11:00 16.3 79.0 0.0 0.0 0.0 2.6 0.0 Kombisensor
2019-06-16 08:10:00 16.3 79.0 0.0 0.0 0.0 2.6 0.0 Kombisensor
2019-06-16 08:08:00 16.2 79.0 0.0 0.0 0.0 2.6 0.0 Kombisensor
2019-06-16 08:05:00 16.3 79.0 0.0 0.0 0.0 2.7 0.0 Kombisensor
2019-06-16 08:05:00 16.3 79.0 0.0 0.0 0.0 2.7 0.0 Kombisensor
2019-06-16 08:02:00 16.1 79.0 0.0 0.0 0.0 2.7 0.0 Kombisensor
2019-06-16 08:00:00 16.0 79.0 0.0 0.0 0.0 2.7 0.0 Kombisensor
2019-06-16 07:59:00 16.0 79.0 0.0 0.0 0.0 2.7 0.0 Kombisensor
2019-06-16 07:56:00 16.0 79.0 0.0 0.0 0.0 2.8 0.0 Kombisensor
2019-06-16 07:55:00 16.0 79.0 0.0 0.0 0.0 3.0 0.0 Kombisensor
2019-06-16 07:53:00 15.8 79.0 0.0 0.0 0.0 2.8 0.0 Kombisensor
2019-06-16 07:50:00 15.8 79.0 0.0 0.0 0.0 2.9 0.0 Kombisensor
2019-06-16 07:50:00 15.8 79.0 0.0 0.0 0.0 2.9 0.0 Kombisensor
2019-06-16 07:47:00 15.7 79.0 0.0 0.0 0.0 2.9 0.0 Kombisensor
2019-06-16 07:45:00 15.6 79.0 0.0 0.0 0.0 2.8 0.0 Kombisensor
2019-06-16 07:44:00 15.6 79.0 0.0 0.0 0.0 2.8 0.0 Kombisensor
2019-06-16 07:41:00 15.5 79.0 0.0 0.0 0.0 2.9 0.0 Kombisensor
2019-06-16 07:40:00 15.5 79.0 0.0 0.0 0.0 2.9 0.0 Kombisensor
2019-06-16 07:38:00 15.4 79.0 0.0 0.0 0.0 3.0 0.0 Kombisensor
2019-06-16 07:36:00 15.2 79.0 0.0 0.0 0.0 2.8 0.0 Kombisensor
2019-06-16 07:35:00 15.2 79.0 0.0 0.0 0.0 2.8 0.0 Kombisensor
2019-06-16 07:33:00 15.0 79.0 0.0 0.0 0.0 2.7 0.0 Kombisensor
2019-06-16 07:30:00 14.8 79.0 0.0 0.0 0.0 2.5 0.0 Kombisensor
2019-06-16 07:30:00 14.8 79.0 0.0 0.0 0.0 2.5 0.0 Kombisensor
2019-06-16 07:27:00 14.7 79.0 0.0 0.0 0.0 2.3 0.0 Kombisensor
2019-06-16 07:25:00 14.5 79.0 0.0 0.0 0.0 2.1 0.0 Kombisensor
2019-06-16 07:24:00 14.5 79.0 0.0 0.0 0.0 2.1 0.0 Kombisensor
2019-06-16 07:21:00 14.3 79.0 0.0 0.0 0.0 1.9 0.0 Kombisensor
2019-06-16 07:20:00 14.3 79.0 0.0 0.0 0.0 1.9 0.0 Kombisensor
2019-06-16 07:18:00 14.3 79.0 0.0 0.0 0.0 1.9 0.0 Kombisensor
2019-06-16 07:15:00 14.1 79.0 0.0 0.0 0.0 1.7 0.0 Kombisensor
2019-06-16 07:15:00 14.1 79.0 0.0 0.0 0.0 1.7 0.0 Kombisensor
2019-06-16 07:12:00 13.9 79.0 0.0 0.0 0.0 1.6 0.0 Kombisensor
2019-06-16 07:10:00 13.7 79.0 0.0 0.0 0.0 1.4 0.0 Kombisensor
2019-06-16 07:09:00 13.7 79.0 0.0 0.0 0.0 1.4 0.0 Kombisensor
2019-06-16 07:06:00 13.6 79.0 0.0 0.0 0.0 1.2 0.0 Kombisensor
2019-06-16 07:05:00 13.6 79.0 0.0 0.0 0.0 1.2 0.0 Kombisensor
2019-06-16 07:03:00 13.4 79.0 0.0 0.0 0.0 1.0 0.0 Kombisensor
2019-06-16 07:00:00 13.3 79.0 0.0 0.0 0.0 0.9 0.0 Kombisensor
2019-06-16 07:00:00 13.3 79.0 0.0 0.0 0.0 0.9 0.0 Kombisensor
2019-06-16 06:57:00 13.2 79.0 0.0 0.0 0.0 0.8 0.0 Kombisensor
2019-06-16 06:55:00 13.0 79.0 0.0 0.0 0.0 0.6 0.0 Kombisensor
2019-06-16 06:54:00 13.0 79.0 0.0 0.0 0.0 0.6 0.0 Kombisensor
2019-06-16 06:52:00 12.9 79.0 0.0 0.0 0.0 0.6 0.0 Kombisensor
2019-06-16 06:50:00 12.9 79.0 0.0 0.0 0.0 0.6 0.0 Kombisensor
2019-06-16 06:49:00 12.9 79.0 0.0 0.0 0.0 0.6 0.0 Kombisensor
2019-06-16 06:46:00 12.8 79.0 0.0 0.0 0.0 0.7 0.0 Kombisensor
2019-06-16 06:45:00 12.8 79.0 0.0 0.0 0.0 0.7 0.0 Kombisensor
2019-06-16 06:43:00 12.7 79.0 0.0 0.0 0.0 0.6 0.0 Kombisensor
2019-06-16 06:40:00 12.6 79.0 0.0 0.0 0.0 0.5 0.0 Kombisensor
2019-06-16 06:37:00 12.4 79.0 0.0 0.0 0.0 0.4 0.0 Kombisensor
2019-06-16 06:35:00 12.4 79.0 0.0 0.0 0.0 0.3 0.0 Kombisensor
2019-06-16 06:34:00 12.4 79.0 0.0 0.0 0.0 0.3 0.0 Kombisensor
2019-06-16 06:31:00 12.3 79.0 0.0 0.0 0.0 0.4 0.0 Kombisensor
2019-06-16 06:30:00 12.3 79.0 0.0 0.0 0.0 0.3 0.0 Kombisensor
2019-06-16 06:28:00 12.3 79.0 0.0 0.0 0.0 0.3 0.0 Kombisensor
2019-06-16 06:25:00 12.4 79.0 0.0 0.0 0.0 0.5 0.0 Kombisensor
2019-06-16 06:25:00 12.4 79.0 0.0 0.0 0.0 0.4 0.0 Kombisensor
2019-06-16 06:22:00 12.4 79.0 0.0 0.0 0.0 0.4 0.0 Kombisensor
2019-06-16 06:20:00 12.4 79.0 0.0 0.0 0.0 0.4 0.0 Kombisensor
2019-06-16 06:19:00 12.4 79.0 0.0 0.0 0.0 0.4 0.0 Kombisensor
2019-06-16 06:16:00 12.4 79.0 0.0 0.0 0.0 0.1 0.0 Kombisensor
2019-06-16 06:15:00 12.4 79.0 0.0 0.0 0.0 0.1 0.0 Kombisensor
2019-06-16 06:13:00 12.3 79.0 0.0 0.0 0.0 0.1 0.0 Kombisensor
2019-06-16 06:10:00 12.3 79.0 0.0 0.0 0.0 -0.2 0.0 Kombisensor
2019-06-16 06:10:00 12.3 79.0 0.0 0.0 0.0 -0.2 0.0 Kombisensor
2019-06-16 06:08:00 12.4 79.0 0.0 0.0 0.0 -0.1 0.0 Kombisensor
2019-06-16 06:05:00 12.4 79.0 0.0 0.0 0.0 -0.1 0.0 Kombisensor
2019-06-16 06:05:00 12.4 79.0 0.0 0.0 0.0 -0.1 0.0 Kombisensor
2019-06-16 06:02:00 12.4 79.0 0.0 0.0 0.0 -0.1 0.0 Kombisensor
2019-06-16 06:00:00 12.4 79.0 0.0 0.0 0.0 -0.1 0.0 Kombisensor
2019-06-16 05:59:00 12.4 79.0 0.0 0.0 0.0 -0.1 0.0 Kombisensor
2019-06-16 05:56:00 12.4 79.0 0.0 0.0 0.0 -0.2 0.0 Kombisensor
2019-06-16 05:55:00 12.4 79.0 0.0 0.0 0.0 -0.2 0.0 Kombisensor
2019-06-16 05:53:00 12.5 79.0 0.0 0.0 0.0 -0.1 0.0 Kombisensor
2019-06-16 05:50:00 12.3 79.0 0.0 0.0 0.0 -0.3 0.0 Kombisensor
2019-06-16 05:50:00 12.3 79.0 0.0 0.0 0.0 -0.2 0.0 Kombisensor
2019-06-16 05:47:00 12.3 79.0 0.0 0.0 0.0 -0.2 0.0 Kombisensor
2019-06-16 05:45:00 12.1 79.0 0.0 0.0 0.0 -0.6 0.0 Kombisensor
2019-06-16 05:44:00 12.1 79.0 0.0 0.0 0.0 -0.6 0.0 Kombisensor
2019-06-16 05:41:00 12.1 79.0 0.0 0.0 0.0 -0.6 0.0 Kombisensor
2019-06-16 05:40:00 12.1 79.0 0.0 0.0 0.0 -0.6 0.0 Kombisensor
2019-06-16 05:38:00 12.0 79.0 0.0 0.0 0.0 -0.8 0.0 Kombisensor
2019-06-16 05:35:00 12.1 79.0 0.0 0.0 0.0 -0.7 0.0 Kombisensor
2019-06-16 05:35:00 12.1 79.0 0.0 0.0 0.0 -0.7 0.0 Kombisensor
2019-06-16 05:32:00 11.9 79.0 0.0 0.0 0.0 -0.7 0.0 Kombisensor
2019-06-16 05:30:00 12.0 79.0 0.0 0.0 0.0 -0.6 0.0 Kombisensor
2019-06-16 05:29:00 12.0 79.0 0.0 0.0 0.0 -0.6 0.0 Kombisensor
2019-06-16 05:26:00 11.9 79.0 0.0 0.0 0.0 -0.7 0.0 Kombisensor
2019-06-16 05:25:00 12.0 79.0 0.0 0.0 0.0 -0.6 0.0 Kombisensor
2019-06-16 05:24:00 12.0 79.0 0.0 0.0 0.0 -0.6 0.0 Kombisensor
2019-06-16 05:23:00 12.0 79.0 0.0 0.0 0.0 -0.6 0.0 Kombisensor
2019-06-16 05:21:00 12.0 79.0 0.0 0.0 0.0 -0.6 0.0 Kombisensor
2019-06-16 05:20:00 12.0 79.0 0.0 0.0 0.0 -0.6 0.0 Kombisensor
2019-06-16 05:18:00 12.2 79.0 0.0 0.0 0.0 -0.5 0.0 Kombisensor
2019-06-16 05:15:00 12.3 79.0 0.0 0.0 0.0 -0.4 0.0 Kombisensor
2019-06-16 05:15:00 12.3 79.0 0.0 0.0 0.0 -0.4 0.0 Kombisensor
2019-06-16 05:12:00 12.2 79.0 0.0 0.0 0.0 -0.5 0.0 Kombisensor
2019-06-16 05:10:00 12.5 79.0 0.0 0.0 0.0 -0.2 0.0 Kombisensor
2019-06-16 05:09:00 12.5 79.0 0.0 0.0 0.0 -0.1 0.0 Kombisensor
2019-06-16 05:06:00 12.5 79.0 0.0 0.0 0.0 -0.1 0.0 Kombisensor
2019-06-16 05:05:00 12.5 79.0 0.0 0.0 0.0 -0.1 0.0 Kombisensor
2019-06-16 05:03:00 12.4 79.0 0.0 0.0 0.0 -0.2 0.0 Kombisensor
2019-06-16 05:00:00 12.5 79.0 0.0 0.0 0.0 -0.3 0.0 Kombisensor
2019-06-16 05:00:00 12.5 79.0 0.0 0.0 0.0 -0.3 0.0 Kombisensor
2019-06-16 04:57:00 12.5 79.0 0.0 0.0 0.0 -0.3 0.0 Kombisensor
2019-06-16 04:55:00 12.6 79.0 0.0 0.0 0.0 -0.2 0.0 Kombisensor
2019-06-16 04:54:00 12.6 79.0 0.0 0.0 0.0 -0.2 0.0 Kombisensor
2019-06-16 04:51:00 12.6 79.0 0.0 0.0 0.0 -0.1 0.0 Kombisensor
2019-06-16 04:50:00 12.5 79.0 0.0 0.0 0.0 -0.2 0.0 Kombisensor
2019-06-16 04:48:00 12.5 79.0 0.0 0.0 0.0 -0.3 0.0 Kombisensor
2019-06-16 04:45:00 12.7 79.0 0.0 0.0 0.0 -0.1 0.0 Kombisensor
2019-06-16 04:45:00 12.7 79.0 0.0 0.0 0.0 -0.1 0.0 Kombisensor
2019-06-16 04:42:00 12.7 79.0 0.0 0.0 0.0 -0.1 0.0 Kombisensor
2019-06-16 04:40:00 12.7 79.0 0.0 0.0 0.0 -0.1 0.0 Kombisensor
2019-06-16 04:35:00 12.8 79.0 0.0 0.0 0.0 0.0 0.0 Kombisensor
2019-06-16 04:34:00 12.8 79.0 0.0 0.0 0.0 -0.1 0.0 Kombisensor
2019-06-16 04:31:00 12.6 79.0 0.0 0.0 0.0 -0.4 0.0 Kombisensor
2019-06-16 04:30:00 12.6 79.0 0.0 0.0 0.0 -0.4 0.0 Kombisensor
2019-06-16 04:28:00 12.6 79.0 0.0 0.0 0.0 -0.5 0.0 Kombisensor
2019-06-16 04:25:00 12.6 79.0 0.0 0.0 0.0 -0.5 0.0 Kombisensor
2019-06-16 04:25:00 12.6 79.0 0.0 0.0 0.0 -0.6 0.0 Kombisensor
2019-06-16 04:22:00 12.6 79.0 0.0 0.0 0.0 -0.6 0.0 Kombisensor
2019-06-16 04:20:00 12.6 79.0 0.0 0.0 0.0 -0.6 0.0 Kombisensor
2019-06-16 04:19:00 12.6 79.0 0.0 0.0 0.0 -0.6 0.0 Kombisensor
2019-06-16 04:16:00 12.7 79.0 0.0 0.0 0.0 -0.6 0.0 Kombisensor
2019-06-16 04:15:00 12.7 79.0 0.0 0.0 0.0 -0.7 0.0 Kombisensor
2019-06-16 04:13:00 12.7 79.0 0.0 0.0 0.0 -0.7 0.0 Kombisensor
2019-06-16 04:10:00 12.7 79.0 0.0 0.0 0.0 -0.8 0.0 Kombisensor
2019-06-16 04:10:00 12.7 79.0 0.0 0.0 0.0 -0.8 0.0 Kombisensor
2019-06-16 04:07:00 12.6 79.0 0.0 0.0 0.0 -0.9 0.0 Kombisensor
2019-06-16 04:05:00 12.6 79.0 0.0 0.0 0.0 -0.9 0.0 Kombisensor
2019-06-16 04:04:00 12.6 79.0 0.0 0.0 0.0 -0.9 0.0 Kombisensor
2019-06-16 04:00:00 12.8 79.0 0.0 0.0 0.0 -0.8 0.0 Kombisensor
2019-06-16 03:58:00 12.8 79.0 0.0 0.0 0.0 -1.0 0.0 Kombisensor
2019-06-16 03:56:00 12.8 79.0 0.0 0.0 0.0 -1.0 0.0 Kombisensor
2019-06-16 03:55:00 12.8 79.0 0.0 0.0 0.0 -1.0 0.0 Kombisensor
2019-06-16 03:53:00 12.8 79.0 0.0 0.0 0.0 -1.1 0.0 Kombisensor
2019-06-16 03:50:00 12.7 79.0 0.0 0.0 0.0 -1.3 0.0 Kombisensor
2019-06-16 03:50:00 12.7 79.0 0.0 0.0 0.0 -1.3 0.0 Kombisensor
2019-06-16 03:47:00 12.8 79.0 0.0 0.0 0.0 -1.3 0.0 Kombisensor
2019-06-16 03:45:00 12.8 79.0 0.0 0.0 0.0 -1.3 0.0 Kombisensor
2019-06-16 03:44:00 12.8 79.0 0.0 0.0 0.0 -1.4 0.0 Kombisensor
2019-06-16 03:41:00 12.8 79.0 0.0 0.0 0.0 -1.5 0.0 Kombisensor
2019-06-16 03:40:00 12.8 79.0 0.0 0.0 0.0 -1.5 0.0 Kombisensor
2019-06-16 03:38:00 12.9 79.0 0.0 0.0 0.0 -1.4 0.0 Kombisensor
2019-06-16 03:35:00 12.8 79.0 0.0 0.0 0.0 -1.4 0.0 Kombisensor
2019-06-16 03:35:00 12.8 79.0 0.0 0.0 0.0 -1.5 0.0 Kombisensor
2019-06-16 03:32:00 12.9 79.0 0.0 0.0 0.0 -1.4 0.0 Kombisensor
2019-06-16 03:30:00 13.0 79.0 0.0 0.0 0.0 -1.2 0.0 Kombisensor
2019-06-16 03:29:00 13.0 79.0 0.0 0.0 0.0 -1.2 0.0 Kombisensor
2019-06-16 03:26:00 13.1 79.0 0.0 0.0 0.0 -1.3 0.0 Kombisensor
2019-06-16 03:25:00 13.2 79.0 0.0 0.0 0.0 -1.2 0.0 Kombisensor
2019-06-16 03:23:00 13.2 79.0 0.0 0.0 0.0 -1.2 0.0 Kombisensor
2019-06-16 03:20:00 13.2 79.0 0.0 0.0 0.0 -1.1 0.0 Kombisensor
2019-06-16 03:20:00 13.2 79.0 0.0 0.0 0.0 -1.1 0.0 Kombisensor
2019-06-16 03:17:00 13.3 79.0 0.0 0.0 0.0 -1.0 0.0 Kombisensor
2019-06-16 03:15:00 13.4 79.0 0.0 0.0 0.0 -0.9 0.0 Kombisensor
2019-06-16 03:14:00 13.4 79.0 0.0 0.0 0.0 -0.9 0.0 Kombisensor
2019-06-16 03:12:00 13.5 79.0 0.0 0.0 0.0 -0.9 0.0 Kombisensor
2019-06-16 03:10:00 13.5 79.0 0.0 0.0 0.0 -0.9 0.0 Kombisensor
2019-06-16 03:09:00 13.5 79.0 0.0 0.0 0.0 -0.9 0.0 Kombisensor
2019-06-16 03:06:00 13.5 79.0 0.0 0.0 0.0 -0.8 0.0 Kombisensor
2019-06-16 03:05:00 13.5 79.0 0.0 0.0 0.0 -0.8 0.0 Kombisensor
2019-06-16 03:03:00 13.7 79.0 0.0 0.0 0.0 -0.7 0.0 Kombisensor
2019-06-16 03:00:00 13.6 79.0 0.0 0.0 0.0 -0.9 0.0 Kombisensor
2019-06-16 03:00:00 13.6 79.0 0.0 0.0 0.0 -0.9 0.0 Kombisensor
2019-06-16 02:57:00 13.8 79.0 0.0 0.0 0.0 -0.7 0.0 Kombisensor
2019-06-16 02:55:00 13.8 79.0 0.0 0.0 0.0 -0.7 0.0 Kombisensor
2019-06-16 02:54:00 13.8 79.0 0.0 0.0 0.0 -0.7 0.0 Kombisensor
2019-06-16 02:51:00 13.9 79.0 0.0 0.0 0.0 -0.5 0.0 Kombisensor
2019-06-16 02:50:00 14.0 79.0 0.0 0.0 0.0 -0.4 0.0 Kombisensor
2019-06-16 02:48:00 14.0 79.0 0.0 0.0 0.0 -0.4 0.0 Kombisensor
2019-06-16 02:45:00 14.1 79.0 0.0 0.0 0.0 -0.3 0.0 Kombisensor
2019-06-16 02:45:00 14.1 79.0 0.0 0.0 0.0 -0.3 0.0 Kombisensor
2019-06-16 02:42:00 14.2 79.0 0.0 0.0 0.0 -0.2 0.0 Kombisensor
2019-06-16 02:40:00 14.3 79.0 0.0 0.0 0.0 -0.1 0.0 Kombisensor
2019-06-16 02:39:00 14.3 79.0 0.0 0.0 0.0 -0.1 0.0 Kombisensor
2019-06-16 02:36:00 14.2 79.0 0.0 0.0 0.0 -0.2 0.0 Kombisensor
2019-06-16 02:35:00 14.3 79.0 0.0 0.0 0.0 -0.1 0.0 Kombisensor
2019-06-16 02:33:00 14.3 79.0 0.0 0.0 0.0 -0.1 0.0 Kombisensor
2019-06-16 02:30:00 14.2 79.0 0.0 0.0 0.0 -0.3 0.0 Kombisensor
2019-06-16 02:30:00 14.2 79.0 0.0 0.0 0.0 -0.3 0.0 Kombisensor
2019-06-16 02:28:00 14.3 79.0 0.0 0.0 0.0 -0.1 0.0 Kombisensor
2019-06-16 02:25:00 14.4 79.0 0.0 0.0 0.0 -0.1 0.0 Kombisensor
2019-06-16 02:25:00 14.4 79.0 0.0 0.0 0.0 -0.1 0.0 Kombisensor
2019-06-16 02:22:00 14.4 79.0 0.0 0.0 0.0 0.0 0.0 Kombisensor
2019-06-16 02:20:00 14.3 79.0 0.0 0.0 0.0 -0.1 0.0 Kombisensor
2019-06-16 02:19:00 14.3 79.0 0.0 0.0 0.0 -0.1 0.0 Kombisensor
2019-06-16 02:16:00 14.3 79.0 0.0 0.0 0.0 -0.2 0.0 Kombisensor
2019-06-16 02:15:00 14.3 79.0 0.0 0.0 0.0 -0.2 0.0 Kombisensor
2019-06-16 02:13:00 14.3 79.0 0.0 0.0 0.0 -0.2 0.0 Kombisensor
2019-06-16 02:10:00 14.4 79.0 0.0 0.0 0.0 -0.1 0.0 Kombisensor
2019-06-16 02:10:00 14.4 79.0 0.0 0.0 0.0 -0.1 0.0 Kombisensor
2019-06-16 02:07:00 14.4 79.0 0.0 0.0 0.0 -0.1 0.0 Kombisensor
2019-06-16 02:05:00 14.3 79.0 0.0 0.0 0.0 -0.2 0.0 Kombisensor
2019-06-16 02:04:00 14.3 79.0 0.0 0.0 0.0 -0.2 0.0 Kombisensor
2019-06-16 02:01:00 14.4 79.0 0.0 0.0 0.0 0.0 0.0 Kombisensor
2019-06-16 02:00:00 14.5 79.0 0.0 0.0 0.0 0.0 0.0 Kombisensor
2019-06-16 01:58:00 14.5 79.0 0.0 0.0 0.0 0.0 0.0 Kombisensor
2019-06-16 01:55:00 14.5 79.0 0.0 0.0 0.0 0.0 0.0 Kombisensor
2019-06-16 01:55:00 14.5 79.0 0.0 0.0 0.0 0.0 0.0 Kombisensor
2019-06-16 01:52:00 14.4 79.0 0.0 0.0 0.0 -0.1 0.0 Kombisensor
2019-06-16 01:50:00 14.4 79.0 0.0 0.0 0.0 -0.1 0.0 Kombisensor
2019-06-16 01:49:00 14.4 79.0 0.0 0.0 0.0 -0.1 0.0 Kombisensor
2019-06-16 01:46:00 14.4 79.0 0.0 0.0 0.0 -0.1 0.0 Kombisensor
2019-06-16 01:45:00 14.4 79.0 0.0 0.0 0.0 -0.1 0.0 Kombisensor
2019-06-16 01:44:00 14.4 79.0 0.0 0.0 0.0 -0.1 0.0 Kombisensor
2019-06-16 01:41:00 14.4 79.0 0.0 0.0 0.0 -0.1 0.0 Kombisensor
2019-06-16 01:40:00 14.4 79.0 0.0 0.0 0.0 -0.1 0.0 Kombisensor
2019-06-16 01:38:00 14.4 79.0 0.0 0.0 0.0 -0.1 0.0 Kombisensor
2019-06-16 01:35:00 14.4 79.0 0.0 0.0 0.0 -0.2 0.0 Kombisensor
2019-06-16 01:35:00 14.4 79.0 0.0 0.0 0.0 -0.2 0.0 Kombisensor
2019-06-16 01:32:00 14.4 79.0 0.0 0.0 0.0 -0.1 0.0 Kombisensor
2019-06-16 01:30:00 14.5 79.0 0.0 0.0 0.0 0.0 0.0 Kombisensor
2019-06-16 01:29:00 14.5 79.0 0.0 0.0 0.0 0.0 0.0 Kombisensor
2019-06-16 01:26:00 14.4 79.0 0.0 0.0 0.0 -0.1 0.0 Kombisensor
2019-06-16 01:25:00 14.5 79.0 0.0 0.0 0.0 0.0 0.0 Kombisensor
2019-06-16 01:23:00 14.5 79.0 0.0 0.0 0.0 0.0 0.0 Kombisensor
2019-06-16 01:20:00 14.4 79.0 0.0 0.0 0.0 -0.1 0.0 Kombisensor
2019-06-16 01:20:00 14.4 79.0 0.0 0.0 0.0 -0.1 0.0 Kombisensor
2019-06-16 01:17:00 14.4 79.0 0.0 0.0 0.0 -0.1 0.0 Kombisensor
2019-06-16 01:15:00 14.5 79.0 0.0 0.0 0.0 -0.1 0.0 Kombisensor
2019-06-16 01:14:00 14.5 79.0 0.0 0.0 0.0 -0.1 0.0 Kombisensor
2019-06-16 01:11:00 14.5 79.0 0.0 0.0 0.0 0.0 0.0 Kombisensor
2019-06-16 01:10:00 14.5 79.0 0.0 0.0 0.0 0.0 0.0 Kombisensor
2019-06-16 01:08:00 14.5 79.0 0.0 0.0 0.0 -0.1 0.0 Kombisensor
2019-06-16 01:05:00 14.5 79.0 0.0 0.0 0.0 0.0 0.0 Kombisensor
2019-06-16 01:05:00 14.5 79.0 0.0 0.0 0.0 0.0 0.0 Kombisensor
2019-06-16 01:02:00 14.4 79.0 0.0 0.0 0.0 -0.2 0.0 Kombisensor
2019-06-16 01:00:00 14.5 79.0 0.0 0.0 0.0 -0.1 0.0 Kombisensor
2019-06-16 00:57:00 14.5 79.0 0.0 0.0 0.0 0.0 0.0 Kombisensor
2019-06-16 00:55:00 14.5 79.0 0.0 0.0 0.0 0.0 0.0 Kombisensor
2019-06-16 00:54:00 14.5 79.0 0.0 0.0 0.0 0.0 0.0 Kombisensor
2019-06-16 00:51:00 14.5 79.0 0.0 0.0 0.0 0.0 0.0 Kombisensor
2019-06-16 00:50:00 14.5 79.0 0.0 0.0 0.0 0.0 0.0 Kombisensor
2019-06-16 00:48:00 14.5 79.0 0.0 0.0 0.0 0.0 0.0 Kombisensor
2019-06-16 00:45:00 14.5 79.0 0.0 0.0 0.0 0.0 0.0 Kombisensor
2019-06-16 00:45:00 14.5 79.0 0.0 0.0 0.0 0.0 0.0 Kombisensor
2019-06-16 00:42:00 14.5 79.0 0.0 0.0 0.0 0.0 0.0 Kombisensor
2019-06-16 00:40:00 14.5 79.0 0.0 0.0 0.0 0.0 0.0 Kombisensor
2019-06-16 00:39:00 14.5 79.0 0.0 0.0 0.0 0.0 0.0 Kombisensor
2019-06-16 00:36:00 14.5 79.0 0.0 0.0 0.0 -0.1 0.0 Kombisensor
2019-06-16 00:35:00 14.6 79.0 0.0 0.0 0.0 0.0 0.0 Kombisensor
2019-06-16 00:33:00 14.6 79.0 0.0 0.0 0.0 0.1 0.0 Kombisensor
2019-06-16 00:30:00 14.5 79.0 0.0 0.0 0.0 0.0 0.0 Kombisensor
2019-06-16 00:30:00 14.5 79.0 0.0 0.0 0.0 0.0 0.0 Kombisensor
2019-06-16 00:27:00 14.5 79.0 0.0 0.0 0.0 0.0 0.0 Kombisensor
2019-06-16 00:25:00 14.5 79.0 0.0 0.0 0.0 0.0 0.0 Kombisensor
2019-06-16 00:24:00 14.5 79.0 0.0 0.0 0.0 0.0 0.0 Kombisensor
2019-06-16 00:21:00 14.5 79.0 0.0 0.0 0.0 0.0 0.0 Kombisensor
2019-06-16 00:20:00 14.5 79.0 0.0 0.0 0.0 0.0 0.0 Kombisensor
2019-06-16 00:18:00 14.5 79.0 0.0 0.0 0.0 -0.1 0.0 Kombisensor
2019-06-16 00:16:00 14.6 79.0 0.0 0.0 0.0 0.0 0.0 Kombisensor
2019-06-16 00:15:00 14.6 79.0 0.0 0.0 0.0 0.0 0.0 Kombisensor
2019-06-16 00:13:00 14.6 79.0 0.0 0.0 0.0 0.1 0.0 Kombisensor
2019-06-16 00:10:00 14.5 79.0 0.0 0.0 0.0 0.0 0.0 Kombisensor
2019-06-16 00:10:00 14.5 79.0 0.0 0.0 0.0 -0.1 0.0 Kombisensor
2019-06-16 00:07:00 14.6 79.0 0.0 0.0 0.0 0.1 0.0 Kombisensor
2019-06-16 00:05:00 14.5 79.0 0.0 0.0 0.0 0.0 0.0 Kombisensor
2019-06-16 00:04:00 14.5 79.0 0.0 0.0 0.0 -0.1 0.0 Kombisensor
2019-06-16 00:01:00 14.6 79.0 0.0 0.0 0.0 0.0 0.0 Kombisensor
2019-06-16 00:00:00 14.6 79.0 0.0 0.0 0.0 -0.1 0.0 Kombisensor